createdAt,value
2019-02-12T00:04:06.339Z,4.67
2019-02-12T00:09:07.985Z,5.20
2019-02-12T00:14:09.979Z,5.70
2019-02-12T00:19:11.973Z,4.73
2019-02-12T00:24:13.570Z,5.77
2019-02-12T00:29:15.114Z,5.37
2019-02-12T00:34:16.698Z,4.87
2019-02-12T00:39:18.260Z,4.77
2019-02-12T00:44:19.788Z,4.27
2019-02-12T00:49:21.762Z,4.23
2019-02-12T00:54:24.189Z,4.93
2019-02-12T00:59:26.009Z,4.53
2019-02-12T01:04:27.957Z,4.03
2019-02-12T01:09:29.472Z,4.57
2019-02-12T01:14:31.463Z,3.77
2019-02-12T01:19:33.314Z,4.83
2019-02-12T01:24:35.264Z,3.87
2019-02-12T01:29:36.793Z,4.17
2019-02-12T01:34:38.337Z,4.10
2019-02-12T01:39:39.961Z,4.97
2019-02-12T01:44:41.857Z,4.47
2019-02-12T01:49:43.426Z,4.70
2019-02-12T01:54:45.032Z,4.40
2019-02-12T01:59:46.579Z,5.30
2019-02-12T02:04:48.141Z,4.63
2019-02-12T02:09:50.037Z,3.97
2019-02-12T02:14:51.730Z,5.07
2019-02-12T02:19:53.293Z,4.40
2019-02-12T02:24:54.887Z,4.50
2019-02-12T02:29:56.470Z,3.80
2019-02-12T02:34:58.009Z,4.57
2019-02-12T02:39:59.533Z,3.50
2019-02-12T02:45:01.095Z,3.90
2019-02-12T02:50:03.459Z,3.67
2019-02-12T02:55:05.211Z,4.10
2019-02-12T03:00:07.359Z,3.67
2019-02-12T03:05:09.279Z,3.80
2019-02-12T03:10:10.851Z,4.03
2019-02-12T03:15:12.425Z,3.93
2019-02-12T03:20:13.994Z,3.90
2019-02-12T03:25:15.535Z,3.60
2019-02-12T03:30:17.099Z,4.37
2019-02-12T03:35:18.698Z,3.47
2019-02-12T03:40:20.226Z,3.80
2019-02-12T03:45:21.805Z,3.87
2019-02-12T03:50:23.361Z,3.87
2019-02-12T03:55:24.907Z,4.30
2019-02-12T04:00:26.443Z,2.93
2019-02-12T04:05:28.019Z,2.83
2019-02-12T04:10:29.715Z,3.17
2019-02-12T04:15:31.295Z,3.53
2019-02-12T04:20:33.301Z,4.00
2019-02-12T04:25:35.555Z,3.90
2019-02-12T04:30:37.106Z,3.70
2019-02-12T04:35:39.046Z,3.97
2019-02-12T04:40:40.635Z,4.83
2019-02-12T04:45:42.160Z,5.67
2019-02-12T04:50:43.803Z,5.37
2019-02-12T04:55:45.437Z,5.10
2019-02-12T05:00:47.012Z,5.40
2019-02-12T05:05:48.559Z,6.40
2019-02-12T05:10:58.413Z,5.20
2019-02-12T05:15:59.969Z,5.93
2019-02-12T05:21:01.862Z,6.03
2019-02-12T05:26:03.425Z,5.30
2019-02-12T05:31:04.974Z,5.17
2019-02-12T05:36:06.579Z,5.30
2019-02-12T05:41:08.700Z,5.17
2019-02-12T05:46:10.291Z,5.13
2019-02-12T05:51:11.919Z,5.40
2019-02-12T05:56:13.480Z,5.43
2019-02-12T06:01:15.963Z,6.40
2019-02-12T06:06:17.917Z,6.17
2019-02-12T06:11:19.459Z,6.07
2019-02-12T06:16:21.124Z,6.07
2019-02-12T06:21:22.651Z,5.70
2019-02-12T06:26:24.225Z,6.70
2019-02-12T06:31:26.107Z,6.30
2019-02-12T06:36:27.708Z,5.60
2019-02-12T06:41:29.316Z,6.67
2019-02-12T06:46:31.402Z,6.70
2019-02-12T06:51:32.917Z,6.00
2019-02-12T06:56:34.487Z,5.70
2019-02-12T07:01:35.985Z,6.60
2019-02-12T07:07:29.342Z,5.93
2019-02-12T07:12:56.751Z,5.17
2019-02-12T07:18:29.673Z,5.87
2019-02-12T07:24:07.923Z,7.10
2019-02-12T07:29:57.009Z,5.27
2019-02-12T07:35:32.473Z,6.60
2019-02-12T07:41:25.115Z,6.40
2019-02-12T07:46:51.867Z,7.00
2019-02-12T07:52:19.415Z,6.73
2019-02-12T07:58:01.797Z,6.90
2019-02-12T08:03:32.920Z,8.20
2019-02-12T08:08:49.975Z,8.30
2019-02-12T08:14:15.016Z,7.80
2019-02-12T08:19:39.758Z,8.80
2019-02-12T08:25:20.437Z,9.00
2019-02-12T08:30:49.953Z,9.70
2019-02-12T08:36:14.641Z,8.80
2019-02-12T08:41:56.842Z,10.83
2019-02-12T08:47:47.438Z,10.83
2019-02-12T08:53:31.667Z,11.37
2019-02-12T08:59:17.393Z,11.63
2019-02-12T09:05:01.312Z,11.20
2019-02-12T09:10:44.669Z,10.97
2019-02-12T09:16:18.594Z,10.67
2019-02-12T09:22:23.218Z,11.63
2019-02-12T09:28:08.846Z,13.33
2019-02-12T09:33:45.117Z,12.10
2019-02-12T09:39:30.662Z,12.03
2019-02-12T09:45:35.539Z,11.67
2019-02-12T09:51:07.079Z,12.23
2019-02-12T09:56:23.270Z,12.30
2019-02-12T10:01:52.835Z,12.27
2019-02-12T10:07:20.183Z,12.23
2019-02-12T10:12:49.714Z,12.83
2019-02-12T10:18:54.369Z,13.17
2019-02-12T10:24:34.790Z,12.03
2019-02-12T10:30:11.214Z,14.70
2019-02-12T10:35:13.070Z,14.40
2019-02-12T10:40:14.633Z,14.17
2019-02-12T10:45:16.206Z,14.23
2019-02-12T10:50:17.727Z,15.90
2019-02-12T10:55:19.693Z,15.20
2019-02-12T11:00:21.999Z,15.30
2019-02-12T11:05:23.564Z,14.77
2019-02-12T11:10:25.736Z,15.00
2019-02-12T11:15:27.308Z,15.77
2019-02-12T11:20:28.854Z,16.57
2019-02-12T11:25:30.569Z,16.23
2019-02-12T11:30:32.715Z,15.60
2019-02-12T11:35:34.388Z,17.30
2019-02-12T11:40:36.467Z,15.93
2019-02-12T11:45:38.058Z,15.67
2019-02-12T11:50:39.867Z,16.93
2019-02-12T11:55:41.552Z,16.77
2019-02-12T12:00:43.481Z,15.63
2019-02-12T12:05:45.049Z,14.97
2019-02-12T12:10:46.887Z,15.77
2019-02-12T12:15:48.441Z,14.63
2019-02-12T12:20:52.867Z,15.97
2019-02-12T12:25:54.442Z,14.17
2019-02-12T12:30:56.113Z,14.13
2019-02-12T12:35:58.234Z,15.33
2019-02-12T12:40:59.810Z,11.87
2019-02-12T12:46:02.417Z,13.27
2019-02-12T12:51:04.056Z,13.43
2019-02-12T12:56:05.610Z,12.50
2019-02-12T13:01:07.545Z,11.30
2019-02-12T13:06:09.113Z,12.37
2019-02-12T13:11:10.721Z,13.20
2019-02-12T13:16:13.141Z,12.03
2019-02-12T13:21:14.844Z,11.63
2019-02-12T13:26:16.625Z,11.73
2019-02-12T13:31:18.316Z,11.40
2019-02-12T13:36:19.853Z,9.60
2019-02-12T13:41:21.426Z,9.80
2019-02-12T13:46:23.415Z,9.17
2019-02-12T13:51:25.048Z,9.47
2019-02-12T13:56:26.669Z,8.80
2019-02-12T14:01:28.175Z,9.30
2019-02-12T14:06:33.176Z,10.13
2019-02-12T14:11:35.259Z,9.73
2019-02-12T14:16:36.872Z,10.50
2019-02-12T14:21:38.466Z,10.40
2019-02-12T14:26:40.061Z,11.37
2019-02-12T14:31:41.967Z,10.43
2019-02-12T14:36:43.603Z,11.20
2019-02-12T14:41:45.219Z,11.50
2019-02-12T14:46:46.817Z,11.60
2019-02-12T14:51:48.634Z,11.87
2019-02-12T14:56:50.334Z,12.17
2019-02-12T15:01:52.477Z,13.20
2019-02-12T15:06:54.066Z,13.50
2019-02-12T15:12:04.730Z,13.33
2019-02-12T15:17:06.347Z,13.33
2019-02-12T15:22:08.935Z,14.27
2019-02-12T15:27:10.609Z,14.70
2019-02-12T15:32:12.379Z,14.53
2019-02-12T15:37:14.114Z,13.80
2019-02-12T15:42:15.784Z,14.50
2019-02-12T15:47:17.479Z,14.57
2019-02-12T15:52:19.174Z,14.73
2019-02-12T15:57:22.564Z,14.00
2019-02-12T16:02:24.574Z,13.70
2019-02-12T16:07:26.169Z,13.43
2019-02-12T16:12:28.555Z,13.70
2019-02-12T16:17:30.337Z,15.30
2019-02-12T16:22:31.888Z,13.80
2019-02-12T16:27:33.504Z,13.93
2019-02-12T16:32:35.218Z,14.30
2019-02-12T16:37:37.238Z,13.03
2019-02-12T16:42:38.966Z,12.27
2019-02-12T16:47:40.682Z,14.60
2019-02-12T16:52:44.403Z,13.93
2019-02-12T16:57:46.033Z,14.47
2019-02-12T17:02:47.614Z,13.25
2019-02-12T17:07:49.871Z,14.03
2019-02-12T17:12:51.403Z,14.87
2019-02-12T17:17:54.223Z,15.33
2019-02-12T17:22:55.953Z,15.63
2019-02-12T17:27:57.677Z,16.43
2019-02-12T17:33:04.625Z,16.33
2019-02-12T17:38:06.206Z,16.77
2019-02-12T17:43:07.790Z,17.13
2019-02-12T17:48:09.427Z,17.33
2019-02-12T17:53:11.069Z,18.83
2019-02-12T17:58:12.637Z,19.33
2019-02-12T18:03:15.298Z,19.00
2019-02-12T18:08:19.295Z,18.80
2019-02-12T18:13:21.052Z,19.90
2019-02-12T18:18:23.310Z,19.03
2019-02-12T18:23:26.010Z,20.83
2019-02-12T18:28:35.367Z,19.30
2019-02-12T18:33:37.219Z,20.00
2019-02-12T18:38:39.892Z,22.37
2019-02-12T18:43:41.442Z,20.57
2019-02-12T18:48:43.027Z,21.67
2019-02-12T18:53:44.632Z,21.03
2019-02-12T18:58:46.244Z,20.83
2019-02-12T19:03:48.874Z,20.73
2019-02-12T19:08:50.818Z,20.97
2019-02-12T19:13:52.471Z,21.07
2019-02-12T19:18:54.280Z,22.80
2019-02-12T19:23:55.926Z,23.20
2019-02-12T19:28:57.612Z,24.17
2019-02-12T19:33:59.848Z,23.30
2019-02-12T19:39:01.907Z,23.03
2019-02-12T19:44:03.755Z,23.27
2019-02-12T19:49:05.326Z,24.83
2019-02-12T19:54:07.103Z,25.70
2019-02-12T19:59:10.215Z,24.57
2019-02-12T20:04:13.741Z,24.20
2019-02-12T20:09:16.038Z,24.57
2019-02-12T20:14:17.913Z,24.03
2019-02-12T20:19:19.631Z,24.23
2019-02-12T20:24:22.827Z,23.47
2019-02-12T20:29:24.523Z,25.60
2019-02-12T20:34:26.370Z,24.83
2019-02-12T20:39:29.668Z,24.93
2019-02-12T20:44:31.772Z,22.27
2019-02-12T20:49:33.583Z,23.50
2019-02-12T20:54:35.376Z,22.90
2019-02-12T20:59:37.014Z,22.63
2019-02-12T21:04:38.711Z,22.33
2019-02-12T21:09:40.847Z,21.43
2019-02-12T21:14:42.484Z,21.87
2019-02-12T21:19:44.154Z,20.60
2019-02-12T21:24:46.912Z,21.33
2019-02-12T21:29:48.572Z,21.57
2019-02-12T21:34:50.428Z,20.73
2019-02-12T21:39:52.037Z,21.43
2019-02-12T21:44:53.646Z,21.37
2019-02-12T21:49:55.268Z,21.27
2019-02-12T21:54:56.864Z,21.60
2019-02-12T21:59:58.517Z,20.20
2019-02-12T22:05:00.451Z,20.83
2019-02-12T22:10:02.816Z,21.67
2019-02-12T22:15:04.712Z,20.90
2019-02-12T22:20:07.620Z,21.73
2019-02-12T22:25:09.487Z,21.03
2019-02-12T22:30:13.498Z,19.30
2019-02-12T22:35:15.071Z,19.33
2019-02-12T22:40:16.669Z,20.40
2019-02-12T22:45:18.300Z,19.37
2019-02-12T22:50:19.885Z,19.33
2019-02-12T22:55:21.504Z,20.63
2019-02-12T23:00:32.349Z,19.57
2019-02-12T23:05:34.378Z,20.27
2019-02-12T23:10:36.275Z,18.20
2019-02-12T23:15:37.926Z,19.37
2019-02-12T23:20:39.498Z,19.40
2019-02-12T23:25:41.581Z,21.13
2019-02-12T23:30:43.170Z,21.30
2019-02-12T23:35:45.183Z,21.43
2019-02-12T23:40:46.741Z,22.30
2019-02-12T23:45:48.314Z,23.67
2019-02-12T23:50:50.362Z,24.30
2019-02-12T23:55:51.902Z,23.77
